Time;durP1;ratioP1;P1;durP2;ratioP2;P2;SDS_P1;SDS_P2;PMS_P1;PMS_P2;Temp;Humidity;BMP_temperature;BMP_pressure;BME280_temperature;BME280_humidity;BME280_pressure;Samples;Min_cycle;Max_cycle;Signal;HPM_P1;HPM_P2
2021/03/13 00:00:32;;;;;;;20.90;3.58;;;;;;;5.71;73.17;99988.84;5092419;28;20054;-66
2021/03/13 00:02:58;;;;;;;21.92;3.35;;;;;;;5.68;73.50;99973.03;5094195;28;20385;-71
2021/03/13 00:05:30;;;;;;;21.73;3.45;;;;;;;5.68;73.46;99975.66;5092615;28;20027;-68
2021/03/13 00:07:55;;;;;;;19.25;3.50;;;;;;;5.70;73.27;99971.34;5092972;28;20050;-70
2021/03/13 00:10:22;;;;;;;18.70;3.40;;;;;;;5.69;73.29;99969.56;5092708;28;20020;-71
2021/03/13 00:12:48;;;;;;;16.15;3.08;;;;;;;5.91;72.54;99966.31;5092763;28;20059;-68
2021/03/13 00:15:14;;;;;;;19.30;3.92;;;;;;;5.84;73.21;99955.72;5093297;28;20024;-68
2021/03/13 00:17:44;;;;;;;16.70;3.20;;;;;;;5.90;72.59;99959.28;5092114;28;20111;-69
2021/03/13 00:20:12;;;;;;;17.92;3.90;;;;;;;5.88;72.91;99950.53;5093575;28;20028;-69
2021/03/13 00:22:37;;;;;;;16.33;3.13;;;;;;;5.97;72.42;99951.47;5090861;28;20498;-68
2021/03/13 00:25:05;;;;;;;21.85;4.38;;;;;;;5.94;72.73;99952.31;5092463;28;20028;-72
2021/03/13 00:27:31;;;;;;;19.95;4.03;;;;;;;5.99;72.93;99950.66;5092846;28;20482;-72
2021/03/13 00:29:56;;;;;;;17.52;3.75;;;;;;;6.09;72.47;99930.63;5090210;28;20036;-69
2021/03/13 00:32:21;;;;;;;21.33;4.30;;;;;;;6.07;73.42;99929.72;5093180;28;20490;-69
2021/03/13 00:34:47;;;;;;;18.38;4.20;;;;;;;5.92;75.23;99919.94;5091666;28;20027;-70
2021/03/13 00:37:12;;;;;;;20.13;4.63;;;;;;;5.68;76.03;99915.34;5092366;28;20035;-68
2021/03/13 00:39:38;;;;;;;20.35;4.47;;;;;;;5.60;77.16;99915.28;5092231;28;20027;-67
2021/03/13 00:42:03;;;;;;;18.85;4.10;;;;;;;5.54;77.25;99908.22;5092009;28;20031;-72
2021/03/13 00:44:29;;;;;;;17.90;4.10;;;;;;;5.48;78.45;99900.31;5091931;28;20024;-67
2021/03/13 00:46:54;;;;;;;20.52;4.68;;;;;;;5.27;80.41;99906.22;5074812;28;20556;-75
2021/03/13 00:49:19;;;;;;;22.52;4.63;;;;;;;5.18;80.74;99890.38;5091613;28;20168;-70
2021/03/13 00:51:45;;;;;;;21.20;4.40;;;;;;;5.09;82.13;99885.91;5093729;28;20024;-68
2021/03/13 00:54:10;;;;;;;20.25;4.50;;;;;;;5.04;82.64;99882.38;5090294;28;20035;-69
2021/03/13 00:56:35;;;;;;;20.55;4.28;;;;;;;5.01;83.02;99866.59;5093391;28;20024;-71
2021/03/13 00:59:01;;;;;;;18.52;4.28;;;;;;;5.01;82.97;99875.38;5091813;28;20382;-71
2021/03/13 01:01:26;;;;;;;17.27;4.10;;;;;;;5.07;83.11;99866.69;5090703;28;20467;-70
2021/03/13 01:03:51;;;;;;;15.10;3.67;;;;;;;5.02;83.10;99865.75;5091746;28;20032;-68
2021/03/13 01:06:17;;;;;;;20.38;4.90;;;;;;;4.97;84.69;99857.84;5090821;28;20024;-75
2021/03/13 01:08:42;;;;;;;21.50;4.75;;;;;;;4.84;86.25;99862.06;5090661;28;20503;-74
2021/03/13 01:11:08;;;;;;;20.63;4.68;;;;;;;4.74;88.50;99851.47;5091461;28;20119;-73
2021/03/13 01:13:33;;;;;;;24.48;5.00;;;;;;;4.78;88.72;99843.66;5072877;28;20540;-72
2021/03/13 01:15:58;;;;;;;19.48;4.45;;;;;;;4.83;87.59;99838.47;5091516;28;20024;-72
2021/03/13 01:18:24;;;;;;;22.58;4.97;;;;;;;4.69;92.69;99818.25;5091581;28;20090;-73
2021/03/13 01:20:50;;;;;;;20.27;4.53;;;;;;;4.78;91.14;99808.75;5072642;28;20063;-72
2021/03/13 01:23:16;;;;;;;15.77;3.80;;;;;;;4.82;89.25;99808.81;5091264;28;20021;-72
2021/03/13 01:25:41;;;;;;;22.15;5.50;;;;;;;4.67;94.10;99796.38;5092477;28;20028;-73
2021/03/13 01:28:07;;;;;;;23.08;5.00;;;;;;;4.66;94.46;99786.78;5092020;28;20051;-71
2021/03/13 01:30:33;;;;;;;17.27;4.28;;;;;;;4.60;94.39;99783.22;5092099;28;20028;-70
2021/03/13 01:32:58;;;;;;;23.55;5.72;;;;;;;4.67;95.66;99783.28;5091617;28;20141;-73
2021/03/13 01:35:27;;;;;;;20.63;5.50;;;;;;;4.65;96.77;99763.22;5091951;28;20040;-72
2021/03/13 01:37:53;;;;;;;23.20;5.90;;;;;;;4.66;97.00;99775.44;5091233;28;20093;-72
2021/03/13 01:40:20;;;;;;;22.30;5.43;;;;;;;4.71;96.48;99769.38;5092037;28;20478;-70
2021/03/13 01:42:47;;;;;;;22.13;5.50;;;;;;;4.67;97.02;99757.13;5088956;28;20030;-70
2021/03/13 01:45:15;;;;;;;20.88;5.50;;;;;;;4.69;97.07;99754.53;5091272;28;20497;-71
2021/03/13 01:47:40;;;;;;;23.00;5.70;;;;;;;4.65;97.37;99750.13;5092123;28;20471;-71
2021/03/13 01:50:07;;;;;;;22.52;6.22;;;;;;;4.64;98.11;99730.91;5091199;28;20030;-69
2021/03/13 01:52:34;;;;;;;20.13;6.30;;;;;;;4.60;98.40;99734.38;5091876;28;20463;-68
2021/03/13 01:55:01;;;;;;;22.85;6.25;;;;;;;4.62;99.28;99722.16;5090709;28;20107;-70
2021/03/13 01:57:27;;;;;;;16.65;4.35;;;;;;;4.60;99.46;99723.91;5090729;28;20039;-70
2021/03/13 01:59:52;;;;;;;21.25;4.95;;;;;;;4.66;98.78;99709.97;5090535;28;20995;-69
2021/03/13 02:02:18;;;;;;;18.92;4.30;;;;;;;4.68;98.06;99705.66;5091632;28;20023;-70
2021/03/13 02:04:43;;;;;;;19.52;4.22;;;;;;;4.66;97.79;99694.25;5092057;28;20024;-70
2021/03/13 02:07:29;;;;;;;23.40;5.90;;;;;;;4.63;99.70;99670.69;5091458;28;20040;-69
2021/03/13 02:10:06;;;;;;;18.27;5.20;;;;;;;4.67;98.49;99657.63;5090984;28;20092;-70
2021/03/13 02:12:34;;;;;;;21.23;5.30;;;;;;;4.63;98.97;99662.81;5091027;28;20034;-70
2021/03/13 02:15:06;;;;;;;22.05;5.63;;;;;;;4.68;98.85;99655.91;5095946;28;20035;-70
2021/03/13 02:17:51;;;;;;;21.40;5.83;;;;;;;4.64;99.46;99654.13;5094967;28;20107;-71
2021/03/13 02:20:20;;;;;;;20.98;5.82;;;;;;;4.69;98.91;99647.19;5093919;28;20409;-71
2021/03/13 02:22:49;;;;;;;23.55;5.72;;;;;;;4.63;99.90;99629.69;5094719;28;20034;-71
2021/03/13 02:25:32;;;;;;;23.60;6.57;;;;;;;4.74;99.64;99634.16;5094905;28;20032;-70
2021/03/13 02:28:04;;;;;;;25.45;6.90;;;;;;;4.61;100.00;99614.81;5097196;28;20032;-70
2021/03/13 02:30:30;;;;;;;21.20;5.82;;;;;;;4.64;100.00;99626.19;5094535;28;20402;-71
2021/03/13 02:33:13;;;;;;;22.90;6.97;;;;;;;4.76;100.00;99609.75;5095363;28;20020;-70
2021/03/13 02:35:43;;;;;;;22.17;5.05;;;;;;;4.66;100.00;99610.50;5094357;28;20024;-70
2021/03/13 02:38:13;;;;;;;19.40;5.82;;;;;;;4.68;100.00;99590.47;5094535;28;20032;-70
2021/03/13 02:40:40;;;;;;;21.38;6.47;;;;;;;4.73;100.00;99583.50;5095757;28;20036;-70
2021/03/13 02:43:11;;;;;;;21.20;5.28;;;;;;;4.69;100.00;99566.91;5095309;28;20028;-71
2021/03/13 02:45:40;;;;;;;21.27;6.25;;;;;;;4.64;100.00;99547.66;5095093;28;20455;-70
2021/03/13 02:48:08;;;;;;;20.73;5.70;;;;;;;4.70;100.00;99516.31;5095253;28;20370;-70
2021/03/13 02:50:35;;;;;;;21.83;5.43;;;;;;;4.61;100.00;99523.22;5094623;28;20398;-69
2021/03/13 02:53:02;;;;;;;24.38;7.00;;;;;;;4.59;100.00;99538.00;5094279;28;20027;-71
2021/03/13 02:55:29;;;;;;;19.63;5.20;;;;;;;4.82;100.00;99530.31;5093707;28;20031;-69
2021/03/13 02:57:57;;;;;;;22.73;6.45;;;;;;;4.72;100.00;99517.19;5095083;28;20071;-70
2021/03/13 03:00:25;;;;;;;21.95;5.57;;;;;;;4.87;100.00;99499.81;5093199;28;20344;-70
2021/03/13 03:02:54;;;;;;;20.33;4.88;;;;;;;4.78;100.00;99492.78;5094410;28;20118;-71
2021/03/13 03:05:23;;;;;;;21.65;5.07;;;;;;;4.84;100.00;99512.91;5092416;28;20028;-71
2021/03/13 03:07:51;;;;;;;21.88;5.63;;;;;;;4.83;100.00;99464.00;5094371;28;20110;-71
2021/03/13 03:10:19;;;;;;;21.42;5.90;;;;;;;4.81;100.00;99461.38;5093620;28;20024;-70
2021/03/13 03:12:47;;;;;;;19.17;5.43;;;;;;;4.86;100.00;99448.31;5094648;28;20028;-71
2021/03/13 03:15:14;;;;;;;21.20;5.85;;;;;;;4.73;100.00;99444.75;5093326;28;20024;-70
2021/03/13 03:17:40;;;;;;;20.65;5.43;;;;;;;4.68;100.00;99433.38;5092242;28;20047;-71
2021/03/13 03:20:09;;;;;;;22.50;6.55;;;;;;;4.77;100.00;99428.19;5094272;28;20032;-71
2021/03/13 03:22:36;;;;;;;20.73;6.20;;;;;;;4.78;100.00;99413.38;5077836;28;20032;-69
2021/03/13 03:25:03;;;;;;;21.60;6.03;;;;;;;4.77;100.00;99404.63;5093497;28;20052;-70
2021/03/13 03:27:28;;;;;;;22.90;6.88;;;;;;;4.79;100.00;99397.66;5093566;28;20028;-70
2021/03/13 03:29:54;;;;;;;20.92;6.03;;;;;;;4.90;100.00;99408.19;5093912;28;20119;-71
2021/03/13 03:32:19;;;;;;;23.02;6.82;;;;;;;4.86;100.00;99393.31;5093136;28;20028;-70
2021/03/13 03:34:45;;;;;;;20.27;5.65;;;;;;;4.86;100.00;99378.50;5094319;28;20463;-70
2021/03/13 03:37:10;;;;;;;19.38;5.18;;;;;;;4.88;100.00;99363.66;5092538;28;20110;-70
2021/03/13 03:39:36;;;;;;;19.70;5.70;;;;;;;4.89;100.00;99365.41;5094081;28;20042;-70
2021/03/13 03:42:02;;;;;;;21.00;5.50;;;;;;;4.95;100.00;99359.31;5092471;28;20027;-71
2021/03/13 03:44:36;;;;;;;22.52;5.90;;;;;;;4.89;100.00;99349.69;5092459;28;20024;-70
2021/03/13 03:47:04;;;;;;;20.77;6.38;;;;;;;4.98;100.00;99343.63;5093140;28;20112;-70
2021/03/13 03:49:30;;;;;;;20.92;5.90;;;;;;;5.00;100.00;99347.09;5093426;28;20032;-71
2021/03/13 03:51:58;;;;;;;19.77;5.53;;;;;;;5.06;100.00;99322.69;5093435;28;20028;-70
2021/03/13 03:54:25;;;;;;;18.10;5.40;;;;;;;5.01;100.00;99317.44;5093854;28;20024;-69
2021/03/13 03:56:51;;;;;;;23.95;7.18;;;;;;;4.96;100.00;99305.19;5092483;28;20024;-70
2021/03/13 03:59:20;;;;;;;21.50;6.82;;;;;;;5.00;100.00;99312.19;5093395;28;20024;-70
2021/03/13 04:01:50;;;;;;;22.98;6.90;;;;;;;5.03;100.00;99317.44;5093749;28;20081;-70
2021/03/13 04:04:21;;;;;;;21.35;5.78;;;;;;;5.10;100.00;99294.72;5093427;28;20051;-68
2021/03/13 04:06:48;;;;;;;21.67;6.00;;;;;;;5.12;100.00;99293.88;5093586;28;20431;-69
2021/03/13 04:09:17;;;;;;;19.60;5.97;;;;;;;5.06;100.00;99286.88;5092713;28;20090;-68
2021/03/13 04:11:44;;;;;;;23.38;6.47;;;;;;;5.07;100.00;99269.44;5093032;28;20032;-71
2021/03/13 04:14:09;;;;;;;23.85;7.20;;;;;;;5.19;100.00;99264.19;5094019;28;20401;-70
2021/03/13 04:16:35;;;;;;;20.15;5.35;;;;;;;5.23;100.00;99272.94;5091976;28;20028;-71
2021/03/13 04:19:02;;;;;;;19.25;5.30;;;;;;;5.23;100.00;99244.97;5091068;28;20020;-65
2021/03/13 04:21:28;;;;;;;19.30;5.47;;;;;;;5.20;100.00;99245.00;5093064;28;20020;-71
2021/03/13 04:23:54;;;;;;;21.17;5.55;;;;;;;5.27;100.00;99234.50;5092627;28;20051;-70
2021/03/13 04:26:21;;;;;;;21.92;5.47;;;;;;;5.25;100.00;99234.50;5093211;28;20036;-71
2021/03/13 04:28:48;;;;;;;20.05;5.95;;;;;;;5.27;100.00;99239.75;5093110;28;20023;-69
2021/03/13 04:31:15;;;;;;;22.42;5.75;;;;;;;5.27;100.00;99218.78;5092861;28;20028;-70
2021/03/13 04:33:42;;;;;;;18.52;4.95;;;;;;;5.28;100.00;99215.28;5093014;28;20012;-61
2021/03/13 04:36:08;;;;;;;19.20;4.88;;;;;;;5.31;100.00;99215.28;5091072;28;20498;-68
2021/03/13 04:38:35;;;;;;;19.10;5.25;;;;;;;5.33;100.00;99192.56;5092374;28;20043;-71
2021/03/13 04:41:02;;;;;;;19.10;4.65;;;;;;;5.37;100.00;99203.06;5089034;28;20032;-62
2021/03/13 04:43:28;;;;;;;15.23;4.07;;;;;;;5.32;100.00;99180.38;5092645;28;20053;-67
2021/03/13 04:45:57;;;;;;;17.08;3.90;;;;;;;5.35;100.00;99182.97;5093315;28;20031;-69
2021/03/13 04:48:23;;;;;;;19.95;5.10;;;;;;;5.34;100.00;99160.25;5091585;28;20393;-70
2021/03/13 04:50:49;;;;;;;18.20;4.40;;;;;;;5.41;100.00;99151.50;5091117;28;20035;-70
2021/03/13 04:53:14;;;;;;;18.10;4.63;;;;;;;5.43;100.00;99135.78;5093919;28;20424;-71
2021/03/13 04:55:39;;;;;;;16.80;4.35;;;;;;;5.38;100.00;99134.03;5092013;28;20085;-70
2021/03/13 04:58:05;;;;;;;12.77;3.38;;;;;;;5.44;100.00;99148.88;5092151;28;20386;-70
2021/03/13 05:00:30;;;;;;;20.52;4.50;;;;;;;5.55;100.00;99128.78;5091193;28;20061;-73
2021/03/13 05:02:56;;;;;;;20.27;4.30;;;;;;;5.49;100.00;99120.94;5092001;28;20039;-72
2021/03/13 05:05:21;;;;;;;15.93;3.33;;;;;;;5.39;100.00;99113.97;5091191;28;20036;-72
2021/03/13 05:07:46;;;;;;;14.52;3.75;;;;;;;5.38;100.00;99102.59;5091519;28;20069;-73
2021/03/13 05:10:12;;;;;;;16.55;3.80;;;;;;;5.47;100.00;99095.59;5091886;28;20036;-73
2021/03/13 05:12:38;;;;;;;15.70;3.03;;;;;;;5.53;100.00;99120.06;5091715;28;20027;-73
2021/03/13 05:15:05;;;;;;;17.85;4.40;;;;;;;5.51;100.00;99108.69;5092506;28;20516;-74
2021/03/13 05:17:30;;;;;;;17.45;4.20;;;;;;;5.54;100.00;99119.16;5091065;28;20566;-74
2021/03/13 05:19:55;;;;;;;16.35;4.10;;;;;;;5.57;100.00;99108.66;5091400;28;20067;-74
2021/03/13 05:22:21;;;;;;;17.95;3.80;;;;;;;5.56;100.00;99111.28;5091538;28;20032;-75
2021/03/13 05:24:46;;;;;;;20.55;4.53;;;;;;;5.49;100.00;99109.56;5092077;28;20039;-76
2021/03/13 05:27:11;;;;;;;16.40;3.58;;;;;;;5.49;100.00;99099.97;5090919;28;20056;-72
2021/03/13 05:29:37;;;;;;;17.45;4.10;;;;;;;5.40;100.00;99099.97;5092214;28;20516;-70
2021/03/13 05:32:02;;;;;;;12.35;3.22;;;;;;;5.47;100.00;99075.50;5091228;28;20107;-73
2021/03/13 05:34:28;;;;;;;20.13;4.00;;;;;;;5.41;100.00;99084.25;5092076;28;20020;-73
2021/03/13 05:36:53;;;;;;;16.80;3.70;;;;;;;5.53;100.00;99078.13;5072437;28;20028;-74
2021/03/13 05:39:18;;;;;;;17.85;4.00;;;;;;;5.41;100.00;99086.00;5091673;28;20369;-73
2021/03/13 05:41:46;;;;;;;16.10;3.42;;;;;;;5.42;100.00;99051.06;5090492;28;20474;-73
2021/03/13 05:44:12;;;;;;;21.60;4.07;;;;;;;5.56;100.00;99074.59;5092290;28;20095;-74
2021/03/13 05:46:42;;;;;;;21.65;4.60;;;;;;;5.48;100.00;99069.38;5091763;28;20145;-74
2021/03/13 05:49:09;;;;;;;19.35;4.20;;;;;;;5.56;100.00;99065.00;5095487;28;20467;-72
2021/03/13 05:51:42;;;;;;;15.45;3.60;;;;;;;5.66;100.00;99057.94;5095572;28;20032;-73
2021/03/13 05:54:07;;;;;;;14.38;3.45;;;;;;;5.69;100.00;99055.31;5094828;28;20501;-73
2021/03/13 05:56:33;;;;;;;20.08;4.10;;;;;;;5.55;100.00;99067.63;5096273;28;20056;-79
2021/03/13 05:58:59;;;;;;;17.67;3.72;;;;;;;5.53;100.00;99051.91;5095887;28;20024;-75
2021/03/13 06:01:29;;;;;;;21.60;4.93;;;;;;;5.44;100.00;99070.25;5095073;28;20028;-76
2021/03/13 06:03:56;;;;;;;18.58;4.35;;;;;;;5.44;100.00;99078.13;5097059;28;20421;-71
2021/03/13 06:06:23;;;;;;;22.33;5.55;;;;;;;5.42;100.00;99093.00;5093949;28;20535;-76
2021/03/13 06:08:49;;;;;;;22.40;5.13;;;;;;;5.38;100.00;99097.34;5095874;28;20048;-75
2021/03/13 06:11:20;;;;;;;25.55;6.10;;;;;;;5.40;100.00;99157.63;5094489;28;20039;-75
2021/03/13 06:13:46;;;;;;;23.52;5.15;;;;;;;4.93;100.00;99086.06;5095529;28;20024;-79
2021/03/13 06:16:11;;;;;;;23.52;5.75;;;;;;;4.99;100.00;99079.97;5094591;28;20382;-76
2021/03/13 06:18:49;;;;;;;18.42;4.28;;;;;;;5.04;100.00;99083.47;5095116;28;20027;-74
2021/03/13 06:21:29;;;;;;;20.48;4.50;;;;;;;5.07;100.00;99107.03;5094982;28;20089;-73
2021/03/13 06:23:56;;;;;;;18.10;3.97;;;;;;;5.11;100.00;99076.44;5077405;28;20050;-75
2021/03/13 06:26:22;;;;;;;16.92;3.60;;;;;;;4.97;100.00;99074.72;5093778;28;20036;-73
2021/03/13 06:28:48;;;;;;;14.80;2.83;;;;;;;4.96;100.00;99057.25;5094983;28;20090;-75
2021/03/13 06:31:14;;;;;;;13.60;2.83;;;;;;;4.89;100.00;99056.41;5094158;28;20069;-74
2021/03/13 06:33:39;;;;;;;16.45;2.63;;;;;;;4.89;100.00;99076.47;5093286;28;20055;-70
2021/03/13 06:36:08;;;;;;;13.05;2.90;;;;;;;4.89;100.00;99066.88;5094675;28;20085;-75
2021/03/13 06:38:36;;;;;;;10.32;2.20;;;;;;;4.85;100.00;99066.91;5075675;28;20417;-72
2021/03/13 06:41:15;;;;;;;11.70;2.60;;;;;;;4.88;100.00;99083.47;5078302;28;20028;-66
2021/03/13 06:43:41;;;;;;;11.93;2.60;;;;;;;4.72;100.00;99086.97;5074231;28;20024;-75
2021/03/13 06:46:09;;;;;;;12.52;2.38;;;;;;;4.65;100.00;99093.94;5093938;28;20024;-74
2021/03/13 06:48:40;;;;;;;13.07;2.60;;;;;;;4.58;100.00;99096.56;5094188;28;20077;-74
2021/03/13 06:51:19;;;;;;;11.00;2.38;;;;;;;4.56;100.00;99103.50;5094893;28;20024;-75
2021/03/13 06:53:57;;;;;;;12.35;2.25;;;;;;;4.30;100.00;99104.38;5094109;28;20099;-72
2021/03/13 06:56:27;;;;;;;14.68;2.70;;;;;;;4.26;100.00;99098.25;5094319;28;20383;-75
2021/03/13 06:58:53;;;;;;;16.90;2.97;;;;;;;4.17;100.00;99088.63;5092205;28;20024;-73
2021/03/13 07:01:26;;;;;;;12.95;2.45;;;;;;;4.23;100.00;99124.41;5093891;28;20024;-74
2021/03/13 07:03:51;;;;;;;;;;;;;;;4.37;100.00;99106.13;5092168;28;20039;-70
2021/03/13 07:06:17;;;;;;;17.13;2.67;;;;;;;4.17;100.00;99103.47;5093877;28;20359;-72
2021/03/13 07:08:44;;;;;;;14.88;2.50;;;;;;;4.19;97.51;99115.69;5094127;28;20044;-74
2021/03/13 07:11:10;;;;;;;15.70;2.50;;;;;;;4.09;100.00;99124.38;5094177;28;20059;-65
2021/03/13 07:13:37;;;;;;;13.05;2.60;;;;;;;4.12;95.41;99129.63;5094541;28;20064;-68
2021/03/13 07:16:22;;;;;;;16.92;2.58;;;;;;;4.23;95.46;99121.78;5093074;28;20107;-71
2021/03/13 07:18:48;;;;;;;17.25;2.45;;;;;;;4.23;89.57;99132.25;5093072;28;20063;-74
2021/03/13 07:21:15;;;;;;;13.95;2.50;;;;;;;4.23;90.87;99131.38;5092980;28;20016;-74
2021/03/13 07:23:44;;;;;;;15.35;2.67;;;;;;;4.25;88.22;99133.16;5089834;28;20020;-70
2021/03/13 07:26:10;;;;;;;19.88;2.70;;;;;;;4.38;85.65;99146.25;5094465;28;20066;-73
2021/03/13 07:28:41;;;;;;;16.08;2.50;;;;;;;4.35;87.55;99140.16;5093039;28;20020;-74
2021/03/13 07:31:11;;;;;;;19.33;2.70;;;;;;;4.33;88.23;99144.47;5092428;28;20384;-67
2021/03/13 07:33:38;;;;;;;16.20;2.80;;;;;;;4.42;87.59;99159.31;5094164;28;20012;-66
2021/03/13 07:36:07;;;;;;;12.25;2.28;;;;;;;4.42;89.12;99143.63;5092755;28;20024;-64
2021/03/13 07:38:36;;;;;;;14.98;2.40;;;;;;;4.53;87.00;99146.28;5096119;28;20107;-61
2021/03/13 07:41:01;;;;;;;18.33;2.80;;;;;;;4.51;86.39;99150.63;5092379;28;20028;-71
2021/03/13 07:43:28;;;;;;;15.48;2.50;;;;;;;4.61;85.18;99146.28;5093906;28;20087;-60
2021/03/13 07:45:55;;;;;;;19.02;2.60;;;;;;;4.68;85.90;99146.28;5092193;28;20028;-61
2021/03/13 07:48:21;;;;;;;19.30;3.20;;;;;;;4.79;83.64;99155.91;5094408;28;20031;-62
2021/03/13 07:50:48;;;;;;;16.48;2.55;;;;;;;4.88;81.46;99164.63;5092315;28;20119;-63
2021/03/13 07:53:14;;;;;;;17.92;2.55;;;;;;;4.93;82.89;99166.38;5093049;28;20024;-62
2021/03/13 07:55:41;;;;;;;17.08;2.67;;;;;;;5.04;82.55;99164.66;5091888;28;20032;-64
2021/03/13 07:58:08;;;;;;;17.67;2.58;;;;;;;5.22;81.68;99177.72;5092216;28;20085;-63
2021/03/13 08:00:44;;;;;;;20.50;2.80;;;;;;;5.41;80.38;99180.34;5093849;28;20037;-60
2021/03/13 08:03:29;;;;;;;20.58;3.00;;;;;;;5.42;80.78;99163.75;5090025;28;20053;-60
2021/03/13 08:05:56;;;;;;;18.35;3.17;;;;;;;5.47;79.42;99151.50;5093628;28;20401;-61
2021/03/13 08:08:38;;;;;;;17.33;3.20;;;;;;;5.54;80.03;99142.75;5092755;28;20052;-60
2021/03/13 08:11:05;;;;;;;22.63;3.13;;;;;;;5.23;82.38;99145.44;5092207;28;20044;-60
2021/03/13 08:13:30;;;;;;;17.65;2.72;;;;;;;5.09;82.90;99160.28;5091546;28;20024;-60
2021/03/13 08:16:13;;;;;;;19.48;3.17;;;;;;;5.15;81.50;99149.78;5092033;28;20151;-60
2021/03/13 08:18:52;;;;;;;15.45;2.70;;;;;;;5.38;79.59;99164.63;5091384;28;20024;-61
2021/03/13 08:21:18;;;;;;;20.75;3.22;;;;;;;5.61;79.20;99166.31;5073940;28;20115;-60
2021/03/13 08:24:00;;;;;;;17.85;2.75;;;;;;;5.93;77.27;99163.63;5092994;28;20582;-61
2021/03/13 08:26:34;;;;;;;21.98;3.42;;;;;;;6.01;76.34;99167.09;5091022;28;20024;-75
2021/03/13 08:29:01;;;;;;;19.08;2.97;;;;;;;5.92;77.81;99175.84;5092811;28;20073;-75
2021/03/13 08:31:31;;;;;;;18.05;3.40;;;;;;;5.42;80.15;99174.22;5091281;28;20039;-74
2021/03/13 08:34:06;;;;;;;17.90;2.47;;;;;;;4.99;81.74;99172.50;5093413;28;20057;-75
2021/03/13 08:36:50;;;;;;;18.38;2.88;;;;;;;4.84;83.16;99209.16;5092114;28;20055;-76
2021/03/13 08:39:23;;;;;;;13.05;2.25;;;;;;;4.09;91.12;99218.53;5093034;28;20474;-76
2021/03/13 08:41:50;;;;;;;17.77;2.60;;;;;;;3.38;98.66;99205.03;5092464;28;20077;-75
2021/03/13 08:44:15;;;;;;;14.38;2.60;;;;;;;3.12;100.00;99231.81;5091806;28;20024;-75
2021/03/13 08:47:11;;;;;;;13.95;2.50;;;;;;;2.88;100.00;99205.47;5092887;28;20089;-80
2021/03/13 08:49:49;;;;;;;13.80;2.80;;;;;;;2.93;100.00;99194.22;5091079;28;20027;-81
2021/03/13 08:52:16;;;;;;;15.52;2.80;;;;;;;3.00;100.00;99208.22;5092554;28;20032;-67
2021/03/13 08:54:41;;;;;;;15.75;2.80;;;;;;;3.14;100.00;99209.16;5092120;28;20101;-72
2021/03/13 08:57:19;;;;;;;17.40;3.53;;;;;;;3.22;100.00;99205.75;5091673;28;20059;-83
2021/03/13 08:59:58;;;;;;;22.83;4.47;;;;;;;3.16;100.00;99205.72;5090943;28;20036;-70
2021/03/13 09:02:32;;;;;;;19.83;4.28;;;;;;;3.34;100.00;99203.25;5092405;28;20088;-81
2021/03/13 09:05:11;;;;;;;21.02;3.80;;;;;;;3.38;100.00;99189.34;5092746;28;20089;-83
2021/03/13 09:07:37;;;;;;;22.35;4.57;;;;;;;3.59;100.00;99196.44;5091897;28;20030;-82
2021/03/13 09:10:04;;;;;;;24.25;4.65;;;;;;;4.05;100.00;99187.09;5090305;28;20398;-81
2021/03/13 09:12:32;;;;;;;24.80;4.35;;;;;;;4.34;100.00;99184.63;5092205;28;20065;-72
2021/03/13 09:15:00;;;;;;;29.20;5.10;;;;;;;4.60;100.00;99182.06;5092522;28;20024;-76
2021/03/13 09:17:27;;;;;;;27.65;4.63;;;;;;;4.75;100.00;99178.59;5092382;28;20028;-78
2021/03/13 09:19:53;;;;;;;25.80;3.63;;;;;;;4.77;100.00;99171.59;5088933;28;20023;-79
2021/03/13 09:22:21;;;;;;;24.20;3.85;;;;;;;4.86;100.00;99176.88;5090710;28;20024;-75
2021/03/13 09:24:59;;;;;;;19.90;3.25;;;;;;;4.85;100.00;99159.41;5091929;28;20027;-81
2021/03/13 09:27:25;;;;;;;27.05;4.03;;;;;;;4.72;100.00;99175.97;5092351;28;20032;-81
2021/03/13 09:29:53;;;;;;;26.77;3.95;;;;;;;4.74;100.00;99175.97;5091032;28;20452;-74
2021/03/13 09:32:19;;;;;;;22.27;3.47;;;;;;;4.88;100.00;99182.09;5090034;28;20084;-78
2021/03/13 09:34:45;;;;;;;26.95;4.45;;;;;;;4.70;100.00;99186.44;5092153;28;20428;-79
2021/03/13 09:37:20;;;;;;;18.88;3.50;;;;;;;4.77;100.00;99176.84;5089942;28;20031;-78
2021/03/13 09:39:51;;;;;;;25.35;3.95;;;;;;;4.73;100.00;99185.56;5088619;28;20092;-75
2021/03/13 09:42:25;;;;;;;22.05;3.80;;;;;;;4.67;100.00;99180.31;5090781;28;20486;-74
2021/03/13 09:44:58;;;;;;;26.77;4.45;;;;;;;4.86;100.00;99170.75;5091655;28;20487;-74
2021/03/13 09:47:34;;;;;;;26.55;4.20;;;;;;;5.05;100.00;99187.34;5089829;28;20055;-74
2021/03/13 09:50:02;;;;;;;24.08;3.92;;;;;;;5.27;98.90;99166.38;5090016;28;20032;-74
2021/03/13 09:52:29;;;;;;;26.25;4.32;;;;;;;5.50;93.81;99169.84;5090026;28;20075;-77
2021/03/13 09:55:09;;;;;;;24.80;4.55;;;;;;;5.65;88.72;99184.69;5072542;28;20065;-80
2021/03/13 09:57:35;;;;;;;24.48;4.65;;;;;;;6.31;88.95;99193.25;5091134;28;20054;-74
2021/03/13 10:00:04;;;;;;;23.67;4.07;;;;;;;6.89;86.24;99185.03;5091013;28;20028;-74
2021/03/13 10:02:30;;;;;;;26.58;4.53;;;;;;;7.08;81.55;99184.91;5092053;28;20032;-72
2021/03/13 10:04:55;;;;;;;20.58;3.88;;;;;;;7.11;78.01;99175.22;5090015;28;20022;-79
2021/03/13 10:07:21;;;;;;;23.52;4.28;;;;;;;6.70;76.39;99178.13;5090926;28;20024;-80
2021/03/13 10:09:50;;;;;;;22.95;4.00;;;;;;;6.41;77.78;99190.56;5091875;28;20040;-73
2021/03/13 10:12:23;;;;;;;24.13;4.15;;;;;;;6.27;76.93;99180.13;5091345;28;20060;-71
2021/03/13 10:14:49;;;;;;;25.20;4.28;;;;;;;6.26;78.00;99175.75;5091380;28;20072;-67
2021/03/13 10:17:14;;;;;;;23.83;4.00;;;;;;;6.25;77.06;99175.78;5090678;28;20043;-72
2021/03/13 10:19:41;;;;;;;25.33;4.97;;;;;;;6.35;76.82;99177.47;5090432;28;20024;-69
2021/03/13 10:22:09;;;;;;;22.13;4.28;;;;;;;6.53;75.99;99160.72;5090874;28;20478;-70
2021/03/13 10:24:46;;;;;;;27.92;4.65;;;;;;;6.33;74.58;99191.47;5090692;28;20028;-79
2021/03/13 10:27:18;;;;;;;26.92;4.72;;;;;;;6.13;78.58;99174.09;5090475;28;20107;-82
2021/03/13 10:29:52;;;;;;;24.87;4.47;;;;;;;6.00;80.32;99178.50;5091780;28;20028;-78
2021/03/13 10:32:24;;;;;;;25.40;4.47;;;;;;;6.49;81.18;99174.75;5091494;28;20334;-79
2021/03/13 10:35:22;;;;;;;23.65;4.55;;;;;;;6.69;73.51;99186.91;5091846;28;20085;-81
2021/03/13 10:37:51;;;;;;;27.02;5.10;;;;;;;6.40;74.23;99185.31;5090762;28;20031;-81
2021/03/13 10:40:39;;;;;;;25.50;4.22;;;;;;;6.55;76.17;99187.88;5077429;28;20547;-72
2021/03/13 10:43:31;;;;;;;25.42;4.53;;;;;;;6.34;74.94;99172.22;4992897;28;20393;-82
2021/03/13 10:45:56;;;;;;;25.30;4.30;;;;;;;6.10;75.17;99166.19;4957088;28;20040;-82
2021/03/13 10:48:23;;;;;;;26.13;4.68;;;;;;;5.99;74.56;99150.50;4960935;28;20442;-81
2021/03/13 10:50:49;;;;;;;28.67;4.57;;;;;;;5.91;75.51;99187.25;4962172;28;20117;-78
2021/03/13 10:53:37;;;;;;;28.95;4.30;;;;;;;6.10;75.65;99190.69;4961596;28;20191;-80
2021/03/13 10:56:04;;;;;;;28.02;4.40;;;;;;;6.96;73.66;99186.72;4958143;28;20132;-77
2021/03/13 10:58:31;;;;;;;25.35;4.38;;;;;;;7.94;70.68;99177.94;4958357;28;20030;-81
2021/03/13 11:00:59;;;;;;;24.38;4.55;;;;;;;8.38;67.39;99164.19;4960629;28;20039;-68
2021/03/13 11:03:25;;;;;;;25.25;4.72;;;;;;;9.21;62.13;99170.03;4960529;28;20499;-82
2021/03/13 11:05:52;;;;;;;25.05;4.78;;;;;;;9.59;61.03;99157.94;4960125;28;20038;-81
2021/03/13 11:08:22;;;;;;;23.33;4.40;;;;;;;10.41;61.37;99143.16;4957920;28;20047;-81
2021/03/13 11:10:49;;;;;;;24.90;4.60;;;;;;;10.96;60.30;99132.19;4959389;28;20090;-74
2021/03/13 11:13:15;;;;;;;25.08;4.60;;;;;;;10.96;55.56;99142.75;4959243;28;20039;-79
2021/03/13 11:15:41;;;;;;;20.92;4.00;;;;;;;11.54;57.20;99121.03;4957884;28;20483;-83
2021/03/13 11:18:06;;;;;;;23.92;4.18;;;;;;;10.45;54.74;99139.50;4959478;28;20047;-83
2021/03/13 11:20:33;;;;;;;22.35;4.53;;;;;;;8.59;60.07;99130.63;5010411;28;20045;-80
2021/03/13 11:22:58;;;;;;;22.42;3.78;;;;;;;8.15;62.27;99124.16;5061655;28;20098;-83
2021/03/13 11:25:24;;;;;;;23.60;3.90;;;;;;;7.86;64.85;99138.53;5092024;28;20485;-83
2021/03/13 11:27:49;;;;;;;20.83;3.53;;;;;;;6.98;72.58;99207.72;5095290;28;20108;-86
2021/03/13 11:30:16;;;;;;;26.08;4.93;;;;;;;3.91;87.73;99215.81;5093185;28;20031;-80
2021/03/13 11:32:41;;;;;;;29.30;5.25;;;;;;;3.47;100.00;99212.06;5094997;28;20092;-80
2021/03/13 11:35:08;;;;;;;25.05;4.68;;;;;;;3.62;100.00;99195.59;5093110;28;20056;-81